UKOO/ODS METAR and TAF weather

Enter ICAO airport designator
Station Type Date Time Source
UKOO METAR 2020/07/14 21:30 UTC NOAA

UKOO 142130Z 00000MPS CAVOK 15/08 Q1014 R34/090060 NOSIG


Station Type Date Time Source
UKOO Decoded METAR 2020/07/14 21:30 UTC NOAA

Odesa, Ukraine (UKOO) 46-26N 030-46E 42M
Jul 14, 2020 - 05:30 PM EDT / 2020.07.14 2130 UTC
Wind: Calm:0
Visibility: greater than 7 mile(s):0
Temperature: 59 F (15 C)
Dew Point: 46 F (8 C)
Relative Humidity: 62%
Pressure (altimeter): 29.94 in. Hg (1014 hPa)
ob: UKOO 142130Z 00000MPS CAVOK 15/08 Q1014 R34/090060 NOSIG
cycle: 21

Station Type Date Time Source
UKOO TAF 2020/07/14 18:12 UTC NOAA

TAF UKOO 141710Z 1418/1518 31005G11MPS 6000 SCT010 SCT020CB TX26/1512Z TN14/1501Z
BECMG 1506/1507 22005G11MPS

Example: see airport list